sensor_id;sensor_type;location;lat;lon;timestamp;P1;durP1;ratioP1;P2;durP2;ratioP2
6997;SDS011;3539;47.982;12.238;2022-11-15T00:02:21;18.33;;;15.00;;
6997;SDS011;3539;47.982;12.238;2022-11-15T00:04:48;15.33;;;13.63;;
6997;SDS011;3539;47.982;12.238;2022-11-15T00:07:15;14.00;;;12.50;;
6997;SDS011;3539;47.982;12.238;2022-11-15T00:09:41;13.63;;;10.83;;
6997;SDS011;3539;47.982;12.238;2022-11-15T00:12:08;11.03;;;9.50;;
6997;SDS011;3539;47.982;12.238;2022-11-15T00:14:35;13.67;;;10.40;;
6997;SDS011;3539;47.982;12.238;2022-11-15T00:17:03;11.40;;;10.07;;
6997;SDS011;3539;47.982;12.238;2022-11-15T00:19:30;13.00;;;10.33;;
6997;SDS011;3539;47.982;12.238;2022-11-15T00:21:56;13.93;;;10.53;;
6997;SDS011;3539;47.982;12.238;2022-11-15T00:24:23;11.07;;;9.57;;
6997;SDS011;3539;47.982;12.238;2022-11-15T00:26:50;12.50;;;9.03;;
6997;SDS011;3539;47.982;12.238;2022-11-15T00:29:16;11.13;;;9.40;;
6997;SDS011;3539;47.982;12.238;2022-11-15T00:31:43;12.60;;;9.83;;
6997;SDS011;3539;47.982;12.238;2022-11-15T00:34:11;11.80;;;9.37;;
6997;SDS011;3539;47.982;12.238;2022-11-15T00:36:39;11.37;;;8.83;;
6997;SDS011;3539;47.982;12.238;2022-11-15T00:39:05;10.43;;;8.77;;
6997;SDS011;3539;47.982;12.238;2022-11-15T00:41:32;10.37;;;9.27;;
6997;SDS011;3539;47.982;12.238;2022-11-15T00:43:59;11.57;;;8.83;;
6997;SDS011;3539;47.982;12.238;2022-11-15T00:46:26;13.07;;;9.70;;
6997;SDS011;3539;47.982;12.238;2022-11-15T00:48:52;10.70;;;9.60;;
6997;SDS011;3539;47.982;12.238;2022-11-15T00:51:20;11.17;;;9.80;;
6997;SDS011;3539;47.982;12.238;2022-11-15T00:53:47;11.50;;;9.00;;
6997;SDS011;3539;47.982;12.238;2022-11-15T00:56:14;10.50;;;9.00;;
6997;SDS011;3539;47.982;12.238;2022-11-15T00:58:41;9.80;;;8.80;;
6997;SDS011;3539;47.982;12.238;2022-11-15T01:01:08;10.43;;;9.07;;
6997;SDS011;3539;47.982;12.238;2022-11-15T01:03:37;10.53;;;9.13;;
6997;SDS011;3539;47.982;12.238;2022-11-15T01:06:07;12.03;;;8.77;;
6997;SDS011;3539;47.982;12.238;2022-11-15T01:08:40;9.23;;;8.17;;
6997;SDS011;3539;47.982;12.238;2022-11-15T01:11:09;8.97;;;8.07;;
6997;SDS011;3539;47.982;12.238;2022-11-15T01:13:37;9.37;;;8.00;;
6997;SDS011;3539;47.982;12.238;2022-11-15T01:16:06;10.13;;;7.97;;
6997;SDS011;3539;47.982;12.238;2022-11-15T01:18:33;9.17;;;8.10;;
6997;SDS011;3539;47.982;12.238;2022-11-15T01:21:04;9.57;;;7.23;;
6997;SDS011;3539;47.982;12.238;2022-11-15T01:23:31;9.17;;;8.17;;
6997;SDS011;3539;47.982;12.238;2022-11-15T01:26:00;9.20;;;7.90;;
6997;SDS011;3539;47.982;12.238;2022-11-15T01:28:29;8.90;;;7.57;;
6997;SDS011;3539;47.982;12.238;2022-11-15T01:30:57;9.33;;;7.77;;
6997;SDS011;3539;47.982;12.238;2022-11-15T01:33:24;8.40;;;7.47;;
6997;SDS011;3539;47.982;12.238;2022-11-15T01:35:51;8.60;;;7.70;;
6997;SDS011;3539;47.982;12.238;2022-11-15T01:38:17;8.90;;;7.63;;
6997;SDS011;3539;47.982;12.238;2022-11-15T01:40:44;10.23;;;8.03;;
6997;SDS011;3539;47.982;12.238;2022-11-15T01:43:22;8.40;;;7.50;;
6997;SDS011;3539;47.982;12.238;2022-11-15T01:45:51;9.90;;;7.93;;
6997;SDS011;3539;47.982;12.238;2022-11-15T01:48:20;10.47;;;8.07;;
6997;SDS011;3539;47.982;12.238;2022-11-15T01:50:47;10.73;;;7.87;;
6997;SDS011;3539;47.982;12.238;2022-11-15T01:53:14;8.87;;;7.93;;
6997;SDS011;3539;47.982;12.238;2022-11-15T01:55:42;10.23;;;8.93;;
6997;SDS011;3539;47.982;12.238;2022-11-15T01:58:08;12.13;;;10.90;;
6997;SDS011;3539;47.982;12.238;2022-11-15T02:00:36;13.20;;;11.10;;
6997;SDS011;3539;47.982;12.238;2022-11-15T02:03:03;13.57;;;10.63;;
6997;SDS011;3539;47.982;12.238;2022-11-15T02:05:30;12.50;;;11.20;;
6997;SDS011;3539;47.982;12.238;2022-11-15T02:07:59;13.60;;;12.20;;
6997;SDS011;3539;47.982;12.238;2022-11-15T02:10:27;14.50;;;10.83;;
6997;SDS011;3539;47.982;12.238;2022-11-15T02:12:54;10.47;;;9.00;;
6997;SDS011;3539;47.982;12.238;2022-11-15T02:15:21;10.07;;;8.97;;
6997;SDS011;3539;47.982;12.238;2022-11-15T02:17:54;11.97;;;9.00;;
6997;SDS011;3539;47.982;12.238;2022-11-15T02:20:39;10.63;;;8.80;;
6997;SDS011;3539;47.982;12.238;2022-11-15T02:23:14;9.53;;;8.10;;
6997;SDS011;3539;47.982;12.238;2022-11-15T02:25:55;9.83;;;7.77;;
6997;SDS011;3539;47.982;12.238;2022-11-15T02:28:33;9.13;;;8.03;;
6997;SDS011;3539;47.982;12.238;2022-11-15T02:31:10;8.87;;;7.73;;
6997;SDS011;3539;47.982;12.238;2022-11-15T02:33:39;9.70;;;8.37;;
6997;SDS011;3539;47.982;12.238;2022-11-15T02:36:10;9.30;;;8.30;;
6997;SDS011;3539;47.982;12.238;2022-11-15T02:38:40;11.40;;;8.70;;
6997;SDS011;3539;47.982;12.238;2022-11-15T02:41:10;10.07;;;8.60;;
6997;SDS011;3539;47.982;12.238;2022-11-15T02:43:40;10.40;;;9.17;;
6997;SDS011;3539;47.982;12.238;2022-11-15T02:46:26;12.53;;;8.63;;
6997;SDS011;3539;47.982;12.238;2022-11-15T02:49:10;10.17;;;7.60;;
6997;SDS011;3539;47.982;12.238;2022-11-15T02:51:37;10.53;;;8.00;;
6997;SDS011;3539;47.982;12.238;2022-11-15T02:54:04;10.80;;;8.00;;
6997;SDS011;3539;47.982;12.238;2022-11-15T02:56:31;9.73;;;8.60;;
6997;SDS011;3539;47.982;12.238;2022-11-15T02:59:05;9.73;;;7.67;;
6997;SDS011;3539;47.982;12.238;2022-11-15T03:01:49;9.60;;;8.63;;
6997;SDS011;3539;47.982;12.238;2022-11-15T03:04:23;12.05;;;10.85;;
6997;SDS011;3539;47.982;12.238;2022-11-15T03:06:57;12.27;;;8.93;;
6997;SDS011;3539;47.982;12.238;2022-11-15T03:09:29;9.93;;;8.20;;
6997;SDS011;3539;47.982;12.238;2022-11-15T03:11:59;11.40;;;8.70;;
6997;SDS011;3539;47.982;12.238;2022-11-15T03:14:32;9.27;;;8.17;;
6997;SDS011;3539;47.982;12.238;2022-11-15T03:17:05;9.70;;;8.70;;
6997;SDS011;3539;47.982;12.238;2022-11-15T03:19:42;9.67;;;7.93;;
6997;SDS011;3539;47.982;12.238;2022-11-15T03:22:14;8.60;;;7.33;;
6997;SDS011;3539;47.982;12.238;2022-11-15T03:24:43;9.57;;;8.00;;
6997;SDS011;3539;47.982;12.238;2022-11-15T03:27:10;12.90;;;8.57;;
6997;SDS011;3539;47.982;12.238;2022-11-15T03:29:41;8.97;;;8.03;;
6997;SDS011;3539;47.982;12.238;2022-11-15T03:32:14;9.07;;;7.13;;
6997;SDS011;3539;47.982;12.238;2022-11-15T03:34:44;9.40;;;8.00;;
6997;SDS011;3539;47.982;12.238;2022-11-15T03:37:15;8.87;;;7.93;;
6997;SDS011;3539;47.982;12.238;2022-11-15T03:39:42;8.87;;;7.70;;
6997;SDS011;3539;47.982;12.238;2022-11-15T03:42:12;11.30;;;8.63;;
6997;SDS011;3539;47.982;12.238;2022-11-15T03:44:46;10.77;;;8.57;;
6997;SDS011;3539;47.982;12.238;2022-11-15T03:47:16;9.27;;;8.27;;
6997;SDS011;3539;47.982;12.238;2022-11-15T03:49:49;10.10;;;9.00;;
6997;SDS011;3539;47.982;12.238;2022-11-15T03:52:17;9.77;;;8.57;;
6997;SDS011;3539;47.982;12.238;2022-11-15T03:54:47;9.93;;;7.93;;
6997;SDS011;3539;47.982;12.238;2022-11-15T03:57:15;10.60;;;7.67;;
6997;SDS011;3539;47.982;12.238;2022-11-15T03:59:42;9.50;;;7.90;;
6997;SDS011;3539;47.982;12.238;2022-11-15T04:02:09;9.57;;;8.03;;
6997;SDS011;3539;47.982;12.238;2022-11-15T04:04:37;8.17;;;7.37;;
6997;SDS011;3539;47.982;12.238;2022-11-15T04:07:04;8.37;;;7.43;;
6997;SDS011;3539;47.982;12.238;2022-11-15T04:09:31;9.33;;;7.73;;
6997;SDS011;3539;47.982;12.238;2022-11-15T04:11:58;9.17;;;8.03;;
6997;SDS011;3539;47.982;12.238;2022-11-15T04:14:24;9.20;;;7.90;;
6997;SDS011;3539;47.982;12.238;2022-11-15T04:16:51;10.10;;;7.60;;
6997;SDS011;3539;47.982;12.238;2022-11-15T04:19:18;9.40;;;8.07;;
6997;SDS011;3539;47.982;12.238;2022-11-15T04:22:03;9.20;;;8.20;;
6997;SDS011;3539;47.982;12.238;2022-11-15T04:24:47;11.47;;;7.83;;
6997;SDS011;3539;47.982;12.238;2022-11-15T04:27:14;8.73;;;7.83;;
6997;SDS011;3539;47.982;12.238;2022-11-15T04:29:41;8.60;;;7.67;;
6997;SDS011;3539;47.982;12.238;2022-11-15T04:32:08;9.77;;;7.90;;
6997;SDS011;3539;47.982;12.238;2022-11-15T04:34:34;10.07;;;8.77;;
6997;SDS011;3539;47.982;12.238;2022-11-15T04:37:04;12.77;;;8.70;;
6997;SDS011;3539;47.982;12.238;2022-11-15T04:40:20;13.33;;;9.63;;
6997;SDS011;3539;47.982;12.238;2022-11-15T04:42:40;17.07;;;15.10;;
6997;SDS011;3539;47.982;12.238;2022-11-15T04:45:07;17.07;;;15.27;;
6997;SDS011;3539;47.982;12.238;2022-11-15T04:47:34;13.60;;;11.97;;
6997;SDS011;3539;47.982;12.238;2022-11-15T04:50:00;11.33;;;9.60;;
6997;SDS011;3539;47.982;12.238;2022-11-15T04:52:28;10.63;;;9.17;;
6997;SDS011;3539;47.982;12.238;2022-11-15T04:54:55;10.73;;;9.23;;
6997;SDS011;3539;47.982;12.238;2022-11-15T04:57:22;12.73;;;10.57;;
6997;SDS011;3539;47.982;12.238;2022-11-15T04:59:49;11.23;;;10.00;;
6997;SDS011;3539;47.982;12.238;2022-11-15T05:02:15;13.13;;;10.70;;
6997;SDS011;3539;47.982;12.238;2022-11-15T05:04:42;13.63;;;12.13;;
6997;SDS011;3539;47.982;12.238;2022-11-15T05:07:08;12.53;;;11.07;;
6997;SDS011;3539;47.982;12.238;2022-11-15T05:09:36;12.40;;;10.53;;
6997;SDS011;3539;47.982;12.238;2022-11-15T05:12:06;12.33;;;10.97;;
6997;SDS011;3539;47.982;12.238;2022-11-15T05:14:35;13.17;;;10.67;;
6997;SDS011;3539;47.982;12.238;2022-11-15T05:17:05;14.73;;;12.60;;
6997;SDS011;3539;47.982;12.238;2022-11-15T05:19:33;13.07;;;10.87;;
6997;SDS011;3539;47.982;12.238;2022-11-15T05:22:11;17.53;;;12.03;;
6997;SDS011;3539;47.982;12.238;2022-11-15T05:24:49;13.50;;;10.93;;
6997;SDS011;3539;47.982;12.238;2022-11-15T05:27:18;10.73;;;9.60;;
6997;SDS011;3539;47.982;12.238;2022-11-15T05:29:50;10.77;;;9.67;;
6997;SDS011;3539;47.982;12.238;2022-11-15T05:32:23;10.70;;;9.53;;
6997;SDS011;3539;47.982;12.238;2022-11-15T05:34:53;10.57;;;9.13;;
6997;SDS011;3539;47.982;12.238;2022-11-15T05:37:23;10.07;;;8.73;;
6997;SDS011;3539;47.982;12.238;2022-11-15T05:39:57;10.83;;;8.80;;
6997;SDS011;3539;47.982;12.238;2022-11-15T05:42:30;9.67;;;8.47;;
6997;SDS011;3539;47.982;12.238;2022-11-15T05:45:09;10.53;;;8.00;;
6997;SDS011;3539;47.982;12.238;2022-11-15T05:47:39;10.30;;;8.23;;
6997;SDS011;3539;47.982;12.238;2022-11-15T05:50:14;9.53;;;7.60;;
6997;SDS011;3539;47.982;12.238;2022-11-15T05:52:50;9.87;;;7.77;;
6997;SDS011;3539;47.982;12.238;2022-11-15T05:55:42;11.60;;;7.10;;
6997;SDS011;3539;47.982;12.238;2022-11-15T05:58:32;12.83;;;8.33;;
6997;SDS011;3539;47.982;12.238;2022-11-15T06:01:14;10.37;;;8.60;;
6997;SDS011;3539;47.982;12.238;2022-11-15T06:03:55;9.67;;;8.67;;
6997;SDS011;3539;47.982;12.238;2022-11-15T06:06:37;10.20;;;8.33;;
6997;SDS011;3539;47.982;12.238;2022-11-15T06:09:09;11.13;;;7.97;;
6997;SDS011;3539;47.982;12.238;2022-11-15T06:11:43;11.63;;;10.43;;
6997;SDS011;3539;47.982;12.238;2022-11-15T06:14:21;10.70;;;9.60;;
6997;SDS011;3539;47.982;12.238;2022-11-15T06:17:06;10.20;;;9.13;;
6997;SDS011;3539;47.982;12.238;2022-11-15T06:19:49;10.83;;;9.73;;
6997;SDS011;3539;47.982;12.238;2022-11-15T06:22:33;14.47;;;8.83;;
6997;SDS011;3539;47.982;12.238;2022-11-15T06:25:03;11.50;;;8.87;;
6997;SDS011;3539;47.982;12.238;2022-11-15T06:27:35;14.03;;;9.77;;
6997;SDS011;3539;47.982;12.238;2022-11-15T06:30:05;11.77;;;9.57;;
6997;SDS011;3539;47.982;12.238;2022-11-15T06:32:32;14.63;;;9.67;;
6997;SDS011;3539;47.982;12.238;2022-11-15T06:35:08;10.40;;;8.90;;
6997;SDS011;3539;47.982;12.238;2022-11-15T06:37:37;14.07;;;9.80;;
6997;SDS011;3539;47.982;12.238;2022-11-15T06:40:07;17.33;;;14.03;;
6997;SDS011;3539;47.982;12.238;2022-11-15T06:42:38;14.77;;;12.07;;
6997;SDS011;3539;47.982;12.238;2022-11-15T06:45:05;14.93;;;11.70;;
6997;SDS011;3539;47.982;12.238;2022-11-15T06:47:35;16.53;;;12.07;;
6997;SDS011;3539;47.982;12.238;2022-11-15T06:50:07;15.97;;;13.00;;
6997;SDS011;3539;47.982;12.238;2022-11-15T06:52:35;17.50;;;14.00;;
6997;SDS011;3539;47.982;12.238;2022-11-15T06:55:18;21.80;;;14.13;;
6997;SDS011;3539;47.982;12.238;2022-11-15T06:57:49;18.27;;;14.60;;
6997;SDS011;3539;47.982;12.238;2022-11-15T07:00:22;14.17;;;12.13;;
6997;SDS011;3539;47.982;12.238;2022-11-15T07:02:51;15.23;;;12.20;;
6997;SDS011;3539;47.982;12.238;2022-11-15T07:05:18;14.50;;;11.57;;
6997;SDS011;3539;47.982;12.238;2022-11-15T07:07:54;15.57;;;11.17;;
6997;SDS011;3539;47.982;12.238;2022-11-15T07:10:24;12.83;;;11.47;;
6997;SDS011;3539;47.982;12.238;2022-11-15T07:12:54;14.13;;;12.23;;
6997;SDS011;3539;47.982;12.238;2022-11-15T07:15:24;14.40;;;12.83;;
6997;SDS011;3539;47.982;12.238;2022-11-15T07:17:51;15.77;;;13.00;;
6997;SDS011;3539;47.982;12.238;2022-11-15T07:20:18;15.40;;;10.60;;
6997;SDS011;3539;47.982;12.238;2022-11-15T07:22:49;12.17;;;9.50;;
6997;SDS011;3539;47.982;12.238;2022-11-15T07:25:16;11.03;;;9.83;;
6997;SDS011;3539;47.982;12.238;2022-11-15T07:27:55;11.47;;;10.27;;
6997;SDS011;3539;47.982;12.238;2022-11-15T07:30:22;13.40;;;11.10;;
6997;SDS011;3539;47.982;12.238;2022-11-15T07:32:54;14.63;;;11.00;;
6997;SDS011;3539;47.982;12.238;2022-11-15T07:35:21;12.97;;;10.57;;
6997;SDS011;3539;47.982;12.238;2022-11-15T07:37:53;13.67;;;12.13;;
6997;SDS011;3539;47.982;12.238;2022-11-15T07:40:21;13.57;;;11.60;;
6997;SDS011;3539;47.982;12.238;2022-11-15T07:42:48;13.73;;;11.47;;
6997;SDS011;3539;47.982;12.238;2022-11-15T07:45:23;13.90;;;11.90;;
6997;SDS011;3539;47.982;12.238;2022-11-15T07:47:51;13.90;;;12.30;;
6997;SDS011;3539;47.982;12.238;2022-11-15T07:50:19;14.50;;;12.77;;
6997;SDS011;3539;47.982;12.238;2022-11-15T07:52:46;18.13;;;15.87;;
6997;SDS011;3539;47.982;12.238;2022-11-15T07:55:13;17.47;;;14.80;;
6997;SDS011;3539;47.982;12.238;2022-11-15T07:57:40;19.90;;;15.27;;
6997;SDS011;3539;47.982;12.238;2022-11-15T08:00:12;20.97;;;17.10;;
6997;SDS011;3539;47.982;12.238;2022-11-15T08:02:41;25.33;;;18.87;;
6997;SDS011;3539;47.982;12.238;2022-11-15T08:05:08;56.73;;;33.23;;
6997;SDS011;3539;47.982;12.238;2022-11-15T08:07:35;55.50;;;32.57;;
6997;SDS011;3539;47.982;12.238;2022-11-15T08:10:03;29.77;;;21.07;;
6997;SDS011;3539;47.982;12.238;2022-11-15T08:12:31;28.43;;;17.30;;
6997;SDS011;3539;47.982;12.238;2022-11-15T08:14:57;17.53;;;14.90;;
6997;SDS011;3539;47.982;12.238;2022-11-15T08:17:24;19.73;;;15.07;;
6997;SDS011;3539;47.982;12.238;2022-11-15T08:19:53;18.43;;;15.30;;
6997;SDS011;3539;47.982;12.238;2022-11-15T08:22:19;16.17;;;14.43;;
6997;SDS011;3539;47.982;12.238;2022-11-15T08:24:46;17.20;;;15.23;;
6997;SDS011;3539;47.982;12.238;2022-11-15T08:27:13;16.10;;;14.37;;
6997;SDS011;3539;47.982;12.238;2022-11-15T08:29:44;17.47;;;14.70;;
6997;SDS011;3539;47.982;12.238;2022-11-15T08:32:12;17.03;;;15.00;;
6997;SDS011;3539;47.982;12.238;2022-11-15T08:34:38;17.03;;;15.03;;
6997;SDS011;3539;47.982;12.238;2022-11-15T08:37:07;18.47;;;15.27;;
6997;SDS011;3539;47.982;12.238;2022-11-15T08:39:34;17.43;;;15.33;;
6997;SDS011;3539;47.982;12.238;2022-11-15T08:42:00;18.93;;;16.23;;
6997;SDS011;3539;47.982;12.238;2022-11-15T08:44:27;18.17;;;16.27;;
6997;SDS011;3539;47.982;12.238;2022-11-15T08:46:54;19.43;;;15.93;;
6997;SDS011;3539;47.982;12.238;2022-11-15T08:49:20;16.60;;;13.63;;
6997;SDS011;3539;47.982;12.238;2022-11-15T08:51:47;14.80;;;13.20;;
6997;SDS011;3539;47.982;12.238;2022-11-15T08:54:16;15.97;;;13.70;;
6997;SDS011;3539;47.982;12.238;2022-11-15T08:56:42;14.50;;;12.98;;
6997;SDS011;3539;47.982;12.238;2022-11-15T08:59:09;14.03;;;12.53;;
6997;SDS011;3539;47.982;12.238;2022-11-15T09:01:36;13.37;;;11.83;;
6997;SDS011;3539;47.982;12.238;2022-11-15T09:04:03;12.33;;;11.13;;
6997;SDS011;3539;47.982;12.238;2022-11-15T09:06:30;11.50;;;10.30;;
6997;SDS011;3539;47.982;12.238;2022-11-15T09:08:59;11.17;;;9.97;;
6997;SDS011;3539;47.982;12.238;2022-11-15T09:11:28;11.17;;;9.80;;
6997;SDS011;3539;47.982;12.238;2022-11-15T09:13:54;10.33;;;9.17;;
6997;SDS011;3539;47.982;12.238;2022-11-15T09:16:21;10.30;;;9.00;;
6997;SDS011;3539;47.982;12.238;2022-11-15T09:18:48;11.83;;;10.50;;
6997;SDS011;3539;47.982;12.238;2022-11-15T09:21:15;11.47;;;10.03;;
6997;SDS011;3539;47.982;12.238;2022-11-15T09:23:42;12.90;;;10.13;;
6997;SDS011;3539;47.982;12.238;2022-11-15T09:26:08;10.77;;;9.60;;
6997;SDS011;3539;47.982;12.238;2022-11-15T09:28:37;10.30;;;9.20;;
6997;SDS011;3539;47.982;12.238;2022-11-15T09:31:07;10.90;;;9.67;;
6997;SDS011;3539;47.982;12.238;2022-11-15T09:33:37;10.67;;;9.03;;
6997;SDS011;3539;47.982;12.238;2022-11-15T09:36:08;10.10;;;9.00;;
6997;SDS011;3539;47.982;12.238;2022-11-15T09:38:38;10.77;;;9.20;;
6997;SDS011;3539;47.982;12.238;2022-11-15T09:44:11;9.20;;;7.93;;
6997;SDS011;3539;47.982;12.238;2022-11-15T09:46:53;9.40;;;8.37;;
6997;SDS011;3539;47.982;12.238;2022-11-15T09:49:23;13.53;;;7.33;;
6997;SDS011;3539;47.982;12.238;2022-11-15T09:51:52;8.83;;;7.87;;
6997;SDS011;3539;47.982;12.238;2022-11-15T09:54:29;11.10;;;7.40;;
6997;SDS011;3539;47.982;12.238;2022-11-15T09:57:02;7.97;;;7.17;;
6997;SDS011;3539;47.982;12.238;2022-11-15T09:59:51;8.73;;;6.43;;
6997;SDS011;3539;47.982;12.238;2022-11-15T10:02:37;7.17;;;6.40;;
6997;SDS011;3539;47.982;12.238;2022-11-15T10:05:14;8.17;;;6.00;;
6997;SDS011;3539;47.982;12.238;2022-11-15T10:07:46;6.93;;;5.30;;
6997;SDS011;3539;47.982;12.238;2022-11-15T10:10:20;7.03;;;5.70;;
6997;SDS011;3539;47.982;12.238;2022-11-15T10:12:50;7.60;;;5.50;;
6997;SDS011;3539;47.982;12.238;2022-11-15T10:15:19;6.70;;;5.70;;
6997;SDS011;3539;47.982;12.238;2022-11-15T10:17:55;6.83;;;5.17;;
6997;SDS011;3539;47.982;12.238;2022-11-15T10:20:30;6.77;;;4.80;;
6997;SDS011;3539;47.982;12.238;2022-11-15T10:23:04;5.37;;;4.37;;
6997;SDS011;3539;47.982;12.238;2022-11-15T10:25:35;4.90;;;4.40;;
6997;SDS011;3539;47.982;12.238;2022-11-15T10:28:06;5.17;;;4.30;;
6997;SDS011;3539;47.982;12.238;2022-11-15T10:30:42;4.50;;;4.10;;
6997;SDS011;3539;47.982;12.238;2022-11-15T10:33:12;8.03;;;4.13;;
6997;SDS011;3539;47.982;12.238;2022-11-15T10:35:47;4.47;;;4.00;;
6997;SDS011;3539;47.982;12.238;2022-11-15T10:38:20;4.17;;;3.77;;
6997;SDS011;3539;47.982;12.238;2022-11-15T10:41:06;6.13;;;4.50;;
6997;SDS011;3539;47.982;12.238;2022-11-15T10:43:34;4.77;;;3.90;;
6997;SDS011;3539;47.982;12.238;2022-11-15T10:46:04;6.27;;;3.97;;
6997;SDS011;3539;47.982;12.238;2022-11-15T10:48:45;4.70;;;4.00;;
6997;SDS011;3539;47.982;12.238;2022-11-15T10:51:30;4.70;;;4.00;;
6997;SDS011;3539;47.982;12.238;2022-11-15T10:53:59;4.97;;;3.80;;
6997;SDS011;3539;47.982;12.238;2022-11-15T10:56:31;5.53;;;3.87;;
6997;SDS011;3539;47.982;12.238;2022-11-15T10:58:58;4.10;;;3.70;;
6997;SDS011;3539;47.982;12.238;2022-11-15T11:01:27;6.57;;;4.43;;
6997;SDS011;3539;47.982;12.238;2022-11-15T11:03:58;5.63;;;3.70;;
6997;SDS011;3539;47.982;12.238;2022-11-15T11:06:26;4.90;;;3.37;;
6997;SDS011;3539;47.982;12.238;2022-11-15T11:08:54;4.47;;;3.53;;
6997;SDS011;3539;47.982;12.238;2022-11-15T11:11:22;4.60;;;3.70;;
6997;SDS011;3539;47.982;12.238;2022-11-15T11:13:49;4.80;;;3.60;;
6997;SDS011;3539;47.982;12.238;2022-11-15T11:16:23;3.63;;;3.33;;
6997;SDS011;3539;47.982;12.238;2022-11-15T11:19:04;3.63;;;3.33;;
6997;SDS011;3539;47.982;12.238;2022-11-15T11:21:43;3.87;;;3.47;;
6997;SDS011;3539;47.982;12.238;2022-11-15T11:24:17;3.53;;;3.13;;
6997;SDS011;3539;47.982;12.238;2022-11-15T11:27:01;5.33;;;3.77;;
6997;SDS011;3539;47.982;12.238;2022-11-15T11:29:39;4.43;;;3.40;;
6997;SDS011;3539;47.982;12.238;2022-11-15T11:32:21;3.30;;;2.93;;
6997;SDS011;3539;47.982;12.238;2022-11-15T11:34:58;5.13;;;3.10;;
6997;SDS011;3539;47.982;12.238;2022-11-15T11:37:34;2.80;;;2.40;;
6997;SDS011;3539;47.982;12.238;2022-11-15T11:40:08;2.87;;;2.50;;
6997;SDS011;3539;47.982;12.238;2022-11-15T11:42:41;4.50;;;2.70;;
6997;SDS011;3539;47.982;12.238;2022-11-15T11:45:21;3.23;;;2.70;;
6997;SDS011;3539;47.982;12.238;2022-11-15T11:47:56;3.77;;;2.60;;
6997;SDS011;3539;47.982;12.238;2022-11-15T11:50:27;2.80;;;2.50;;
6997;SDS011;3539;47.982;12.238;2022-11-15T11:52:56;2.67;;;2.47;;
6997;SDS011;3539;47.982;12.238;2022-11-15T11:55:24;3.67;;;2.70;;
6997;SDS011;3539;47.982;12.238;2022-11-15T11:58:03;3.20;;;2.60;;
6997;SDS011;3539;47.982;12.238;2022-11-15T12:00:33;3.60;;;2.53;;
6997;SDS011;3539;47.982;12.238;2022-11-15T12:03:05;3.30;;;2.70;;
6997;SDS011;3539;47.982;12.238;2022-11-15T12:05:36;2.70;;;2.50;;
6997;SDS011;3539;47.982;12.238;2022-11-15T12:08:14;2.63;;;2.43;;
6997;SDS011;3539;47.982;12.238;2022-11-15T12:10:47;3.00;;;2.60;;
6997;SDS011;3539;47.982;12.238;2022-11-15T12:13:18;3.23;;;2.50;;
6997;SDS011;3539;47.982;12.238;2022-11-15T12:15:48;3.67;;;2.50;;
6997;SDS011;3539;47.982;12.238;2022-11-15T12:18:22;3.20;;;2.70;;
6997;SDS011;3539;47.982;12.238;2022-11-15T12:20:51;3.20;;;2.90;;
6997;SDS011;3539;47.982;12.238;2022-11-15T12:23:22;3.40;;;2.50;;
6997;SDS011;3539;47.982;12.238;2022-11-15T12:25:52;2.50;;;2.30;;
6997;SDS011;3539;47.982;12.238;2022-11-15T12:28:20;2.70;;;2.37;;
6997;SDS011;3539;47.982;12.238;2022-11-15T12:30:55;2.47;;;2.27;;
6997;SDS011;3539;47.982;12.238;2022-11-15T12:33:31;2.97;;;2.00;;
6997;SDS011;3539;47.982;12.238;2022-11-15T12:36:02;2.13;;;1.93;;
6997;SDS011;3539;47.982;12.238;2022-11-15T12:41:23;2.93;;;1.87;;
6997;SDS011;3539;47.982;12.238;2022-11-15T12:43:52;1.97;;;1.70;;
6997;SDS011;3539;47.982;12.238;2022-11-15T12:46:20;2.13;;;1.70;;
6997;SDS011;3539;47.982;12.238;2022-11-15T12:48:56;3.27;;;1.53;;
6997;SDS011;3539;47.982;12.238;2022-11-15T12:57:50;3.57;;;1.60;;
6997;SDS011;3539;47.982;12.238;2022-11-15T13:03:16;4.93;;;2.00;;
6997;SDS011;3539;47.982;12.238;2022-11-15T13:09:49;2.30;;;1.90;;
6997;SDS011;3539;47.982;12.238;2022-11-15T13:12:47;1.87;;;1.77;;
6997;SDS011;3539;47.982;12.238;2022-11-15T13:15:34;1.77;;;1.60;;
6997;SDS011;3539;47.982;12.238;2022-11-15T13:18:36;2.40;;;1.83;;
6997;SDS011;3539;47.982;12.238;2022-11-15T13:21:16;3.57;;;2.40;;
6997;SDS011;3539;47.982;12.238;2022-11-15T13:24:04;2.80;;;2.03;;
6997;SDS011;3539;47.982;12.238;2022-11-15T13:26:37;2.20;;;2.00;;
6997;SDS011;3539;47.982;12.238;2022-11-15T13:29:17;2.37;;;2.13;;
6997;SDS011;3539;47.982;12.238;2022-11-15T13:31:47;2.43;;;1.90;;
6997;SDS011;3539;47.982;12.238;2022-11-15T13:34:25;2.57;;;2.00;;
6997;SDS011;3539;47.982;12.238;2022-11-15T13:37:04;2.27;;;1.90;;
6997;SDS011;3539;47.982;12.238;2022-11-15T13:39:38;2.50;;;2.00;;
6997;SDS011;3539;47.982;12.238;2022-11-15T13:42:15;2.93;;;2.30;;
6997;SDS011;3539;47.982;12.238;2022-11-15T13:44:53;2.40;;;2.20;;
6997;SDS011;3539;47.982;12.238;2022-11-15T13:47:21;2.33;;;2.10;;
6997;SDS011;3539;47.982;12.238;2022-11-15T13:49:53;2.53;;;2.27;;
6997;SDS011;3539;47.982;12.238;2022-11-15T13:52:19;2.97;;;2.57;;
6997;SDS011;3539;47.982;12.238;2022-11-15T13:54:50;3.13;;;2.83;;
6997;SDS011;3539;47.982;12.238;2022-11-15T13:57:23;2.63;;;2.37;;
6997;SDS011;3539;47.982;12.238;2022-11-15T13:59:53;2.70;;;2.23;;
6997;SDS011;3539;47.982;12.238;2022-11-15T14:02:26;2.57;;;2.37;;
6997;SDS011;3539;47.982;12.238;2022-11-15T14:04:55;2.67;;;2.20;;
6997;SDS011;3539;47.982;12.238;2022-11-15T14:07:24;3.23;;;2.63;;
6997;SDS011;3539;47.982;12.238;2022-11-15T14:09:54;2.57;;;2.37;;
6997;SDS011;3539;47.982;12.238;2022-11-15T14:12:25;3.83;;;2.80;;
6997;SDS011;3539;47.982;12.238;2022-11-15T14:14:54;2.70;;;2.50;;
6997;SDS011;3539;47.982;12.238;2022-11-15T14:17:21;4.07;;;3.20;;
6997;SDS011;3539;47.982;12.238;2022-11-15T14:20:00;4.57;;;2.63;;
6997;SDS011;3539;47.982;12.238;2022-11-15T14:22:27;3.50;;;3.20;;
6997;SDS011;3539;47.982;12.238;2022-11-15T14:25:07;3.40;;;3.10;;
6997;SDS011;3539;47.982;12.238;2022-11-15T14:27:41;3.30;;;3.00;;
6997;SDS011;3539;47.982;12.238;2022-11-15T14:30:12;3.57;;;3.10;;
6997;SDS011;3539;47.982;12.238;2022-11-15T14:32:41;4.97;;;3.10;;
6997;SDS011;3539;47.982;12.238;2022-11-15T14:35:11;4.33;;;3.40;;
6997;SDS011;3539;47.982;12.238;2022-11-15T14:37:42;3.20;;;2.90;;
6997;SDS011;3539;47.982;12.238;2022-11-15T14:40:13;4.57;;;3.27;;
6997;SDS011;3539;47.982;12.238;2022-11-15T14:42:41;3.90;;;3.57;;
6997;SDS011;3539;47.982;12.238;2022-11-15T14:45:09;3.60;;;3.30;;
6997;SDS011;3539;47.982;12.238;2022-11-15T14:47:38;4.90;;;3.57;;
6997;SDS011;3539;47.982;12.238;2022-11-15T14:50:05;7.00;;;3.83;;
6997;SDS011;3539;47.982;12.238;2022-11-15T14:52:32;4.23;;;3.73;;
6997;SDS011;3539;47.982;12.238;2022-11-15T14:55:01;5.03;;;4.13;;
6997;SDS011;3539;47.982;12.238;2022-11-15T14:57:30;5.33;;;4.53;;
6997;SDS011;3539;47.982;12.238;2022-11-15T14:59:57;10.53;;;5.07;;
6997;SDS011;3539;47.982;12.238;2022-11-15T15:02:24;6.60;;;5.03;;
6997;SDS011;3539;47.982;12.238;2022-11-15T15:04:52;8.03;;;6.10;;
6997;SDS011;3539;47.982;12.238;2022-11-15T15:07:19;7.27;;;5.43;;
6997;SDS011;3539;47.982;12.238;2022-11-15T15:09:46;8.53;;;6.07;;
6997;SDS011;3539;47.982;12.238;2022-11-15T15:12:14;6.90;;;5.73;;
6997;SDS011;3539;47.982;12.238;2022-11-15T15:14:44;15.63;;;10.47;;
6997;SDS011;3539;47.982;12.238;2022-11-15T15:17:11;16.00;;;10.00;;
6997;SDS011;3539;47.982;12.238;2022-11-15T15:19:38;14.07;;;8.80;;
6997;SDS011;3539;47.982;12.238;2022-11-15T15:22:05;8.20;;;5.63;;
6997;SDS011;3539;47.982;12.238;2022-11-15T15:24:32;7.60;;;5.67;;
6997;SDS011;3539;47.982;12.238;2022-11-15T15:26:59;8.53;;;6.13;;
6997;SDS011;3539;47.982;12.238;2022-11-15T15:29:25;12.03;;;7.20;;
6997;SDS011;3539;47.982;12.238;2022-11-15T15:31:57;12.77;;;8.60;;
6997;SDS011;3539;47.982;12.238;2022-11-15T15:34:24;10.23;;;7.00;;